sensor_id;sensor_type;location;lat;lon;timestamp;pressure;altitude;pressure_sealevel;temperature;humidity
71795;BME280;59641;45.188;5.712;2023-07-13T00:00:22;99207.28;;;27.10;56.54
71795;BME280;59641;45.188;5.712;2023-07-13T00:02:47;99204.03;;;27.08;56.42
71795;BME280;59641;45.188;5.712;2023-07-13T00:05:13;99214.59;;;27.06;56.50
71795;BME280;59641;45.188;5.712;2023-07-13T00:07:38;99206.19;;;27.02;56.16
71795;BME280;59641;45.188;5.712;2023-07-13T00:10:04;99199.88;;;27.02;56.32
71795;BME280;59641;45.188;5.712;2023-07-13T00:12:35;99200.09;;;26.96;55.79
71795;BME280;59641;45.188;5.712;2023-07-13T00:15:07;99199.13;;;26.92;55.82
71795;BME280;59641;45.188;5.712;2023-07-13T00:17:33;99201.72;;;26.89;55.67
71795;BME280;59641;45.188;5.712;2023-07-13T00:19:58;99204.84;;;26.87;55.61
71795;BME280;59641;45.188;5.712;2023-07-13T00:22:24;99202.56;;;26.89;55.88
71795;BME280;59641;45.188;5.712;2023-07-13T00:24:52;99202.88;;;26.88;55.04
71795;BME280;59641;45.188;5.712;2023-07-13T00:27:18;99207.22;;;26.89;55.07
71795;BME280;59641;45.188;5.712;2023-07-13T00:29:43;99202.06;;;26.87;55.01
71795;BME280;59641;45.188;5.712;2023-07-13T00:32:10;99200.94;;;26.88;54.44
71795;BME280;59641;45.188;5.712;2023-07-13T00:34:37;99199.31;;;26.87;54.43
71795;BME280;59641;45.188;5.712;2023-07-13T00:37:02;99202.91;;;26.79;54.16
71795;BME280;59641;45.188;5.712;2023-07-13T00:39:28;99216.56;;;26.75;54.27
71795;BME280;59641;45.188;5.712;2023-07-13T00:41:53;99218.03;;;26.73;54.01
71795;BME280;59641;45.188;5.712;2023-07-13T00:44:20;99216.75;;;26.70;53.96
71795;BME280;59641;45.188;5.712;2023-07-13T00:46:48;99219.69;;;26.65;54.27
71795;BME280;59641;45.188;5.712;2023-07-13T00:49:17;99233.44;;;26.65;53.93
71795;BME280;59641;45.188;5.712;2023-07-13T00:54:44;99241.53;;;26.62;53.64
71795;BME280;59641;45.188;5.712;2023-07-13T00:57:14;99242.81;;;26.64;53.71
71795;BME280;59641;45.188;5.712;2023-07-13T00:59:42;99246.72;;;26.63;53.27
71795;BME280;59641;45.188;5.712;2023-07-13T01:02:08;99245.91;;;26.63;52.77
71795;BME280;59641;45.188;5.712;2023-07-13T01:04:34;99248.19;;;26.61;52.90
71795;BME280;59641;45.188;5.712;2023-07-13T01:06:59;99244.75;;;26.64;53.06
71795;BME280;59641;45.188;5.712;2023-07-13T01:09:26;99243.31;;;26.58;53.04
71795;BME280;59641;45.188;5.712;2023-07-13T01:11:52;99239.28;;;26.55;52.83
71795;BME280;59641;45.188;5.712;2023-07-13T01:14:17;99242.38;;;26.53;52.60
71795;BME280;59641;45.188;5.712;2023-07-13T01:16:45;99242.38;;;26.53;52.73
71795;BME280;59641;45.188;5.712;2023-07-13T01:21:51;99235.91;;;26.58;53.00
71795;BME280;59641;45.188;5.712;2023-07-13T01:24:17;99225.34;;;26.60;52.74
71795;BME280;59641;45.188;5.712;2023-07-13T01:26:42;99229.06;;;26.64;52.59
71795;BME280;59641;45.188;5.712;2023-07-13T01:29:08;99225.81;;;26.62;52.39
71795;BME280;59641;45.188;5.712;2023-07-13T01:31:33;99222.94;;;26.59;52.56
71795;BME280;59641;45.188;5.712;2023-07-13T01:33:58;99223.25;;;26.57;52.51
71795;BME280;59641;45.188;5.712;2023-07-13T01:36:24;99229.91;;;26.56;52.51
71795;BME280;59641;45.188;5.712;2023-07-13T01:38:49;99237.38;;;26.55;52.48
71795;BME280;59641;45.188;5.712;2023-07-13T01:41:15;99240.91;;;26.56;52.45
71795;BME280;59641;45.188;5.712;2023-07-13T01:43:40;99244.16;;;26.58;52.41
71795;BME280;59641;45.188;5.712;2023-07-13T01:46:06;99243.00;;;26.59;52.49
71795;BME280;59641;45.188;5.712;2023-07-13T01:48:31;99252.53;;;26.62;52.49
71795;BME280;59641;45.188;5.712;2023-07-13T01:50:56;99240.41;;;26.63;52.61
71795;BME280;59641;45.188;5.712;2023-07-13T01:53:22;99246.72;;;26.63;52.15
71795;BME280;59641;45.188;5.712;2023-07-13T01:55:47;99246.38;;;26.65;52.00
71795;BME280;59641;45.188;5.712;2023-07-13T01:58:12;99246.72;;;26.63;52.02
71795;BME280;59641;45.188;5.712;2023-07-13T02:00:38;99244.59;;;26.60;51.75
71795;BME280;59641;45.188;5.712;2023-07-13T02:03:03;99242.88;;;26.55;51.49
71795;BME280;59641;45.188;5.712;2023-07-13T02:05:28;99242.66;;;26.52;51.88
71795;BME280;59641;45.188;5.712;2023-07-13T02:07:54;99243.19;;;26.54;51.91
71795;BME280;59641;45.188;5.712;2023-07-13T02:10:20;99249.63;;;26.49;52.00
71795;BME280;59641;45.188;5.712;2023-07-13T02:12:45;99246.91;;;26.41;51.46
71795;BME280;59641;45.188;5.712;2023-07-13T02:15:11;99243.69;;;26.39;51.55
71795;BME280;59641;45.188;5.712;2023-07-13T02:17:36;99235.75;;;26.37;51.67
71795;BME280;59641;45.188;5.712;2023-07-13T02:20:03;99241.09;;;26.33;51.93
71795;BME280;59641;45.188;5.712;2023-07-13T02:22:29;99234.00;;;26.32;51.64
71795;BME280;59641;45.188;5.712;2023-07-13T02:24:55;99249.34;;;26.33;51.83
71795;BME280;59641;45.188;5.712;2023-07-13T02:27:20;99249.88;;;26.27;51.50
71795;BME280;59641;45.188;5.712;2023-07-13T02:29:46;99251.47;;;26.19;51.81
71795;BME280;59641;45.188;5.712;2023-07-13T02:32:11;99251.53;;;26.10;51.74
71795;BME280;59641;45.188;5.712;2023-07-13T02:34:37;99247.66;;;26.03;51.71
71795;BME280;59641;45.188;5.712;2023-07-13T02:37:02;99248.94;;;25.97;52.12
71795;BME280;59641;45.188;5.712;2023-07-13T02:39:28;99258.81;;;25.89;52.03
71795;BME280;59641;45.188;5.712;2023-07-13T02:41:53;99253.97;;;25.86;52.27
71795;BME280;59641;45.188;5.712;2023-07-13T02:44:18;99251.03;;;25.82;52.44
71795;BME280;59641;45.188;5.712;2023-07-13T02:46:44;99254.09;;;25.81;52.15
71795;BME280;59641;45.188;5.712;2023-07-13T02:49:10;99253.44;;;25.75;52.48
71795;BME280;59641;45.188;5.712;2023-07-13T02:51:35;99255.09;;;25.76;52.47
71795;BME280;59641;45.188;5.712;2023-07-13T02:54:02;99249.41;;;25.72;52.33
71795;BME280;59641;45.188;5.712;2023-07-13T02:56:29;99253.31;;;25.71;52.52
71795;BME280;59641;45.188;5.712;2023-07-13T02:58:55;99255.72;;;25.73;52.34
71795;BME280;59641;45.188;5.712;2023-07-13T03:01:21;99251.53;;;25.67;52.47
71795;BME280;59641;45.188;5.712;2023-07-13T03:03:48;99249.56;;;25.67;52.47
71795;BME280;59641;45.188;5.712;2023-07-13T03:06:15;99252.31;;;25.67;52.40
71795;BME280;59641;45.188;5.712;2023-07-13T03:08:41;99253.13;;;25.68;52.28
71795;BME280;59641;45.188;5.712;2023-07-13T03:11:10;99261.53;;;25.71;52.51
71795;BME280;59641;45.188;5.712;2023-07-13T03:13:37;99260.72;;;25.71;52.77
71795;BME280;59641;45.188;5.712;2023-07-13T03:16:03;99265.59;;;25.74;52.83
71795;BME280;59641;45.188;5.712;2023-07-13T03:18:29;99264.44;;;25.75;52.43
71795;BME280;59641;45.188;5.712;2023-07-13T03:20:55;99264.13;;;25.77;52.32
71795;BME280;59641;45.188;5.712;2023-07-13T03:23:21;99266.88;;;25.77;52.39
71795;BME280;59641;45.188;5.712;2023-07-13T03:25:47;99275.91;;;25.77;51.90
71795;BME280;59641;45.188;5.712;2023-07-13T03:28:14;99269.63;;;25.77;52.53
71795;BME280;59641;45.188;5.712;2023-07-13T03:30:39;99267.69;;;25.77;52.00
71795;BME280;59641;45.188;5.712;2023-07-13T03:33:05;99268.34;;;25.74;51.98
71795;BME280;59641;45.188;5.712;2023-07-13T03:35:30;99283.19;;;25.73;52.13
71795;BME280;59641;45.188;5.712;2023-07-13T03:37:58;99288.19;;;25.71;52.21
71795;BME280;59641;45.188;5.712;2023-07-13T03:40:24;99290.94;;;25.71;52.16
71795;BME280;59641;45.188;5.712;2023-07-13T03:42:50;99285.94;;;25.73;52.30
71795;BME280;59641;45.188;5.712;2023-07-13T03:45:16;99292.72;;;25.76;52.05
71795;BME280;59641;45.188;5.712;2023-07-13T03:47:42;99286.72;;;25.73;51.68
71795;BME280;59641;45.188;5.712;2023-07-13T03:50:07;99282.38;;;25.72;51.94
71795;BME280;59641;45.188;5.712;2023-07-13T03:52:33;99290.31;;;25.74;51.93
71795;BME280;59641;45.188;5.712;2023-07-13T03:54:58;99292.72;;;25.76;52.03
71795;BME280;59641;45.188;5.712;2023-07-13T03:57:23;99292.72;;;25.76;51.57
71795;BME280;59641;45.188;5.712;2023-07-13T03:59:49;99286.44;;;25.75;51.55
71795;BME280;59641;45.188;5.712;2023-07-13T04:02:14;99296.75;;;25.78;51.73
71795;BME280;59641;45.188;5.712;2023-07-13T04:04:39;99296.13;;;25.81;51.33
71795;BME280;59641;45.188;5.712;2023-07-13T04:07:07;99296.94;;;25.82;50.46
71795;BME280;59641;45.188;5.712;2023-07-13T04:09:33;99297.72;;;25.73;50.79
71795;BME280;59641;45.188;5.712;2023-07-13T04:11:59;99303.38;;;25.68;50.61
71795;BME280;59641;45.188;5.712;2023-07-13T04:14:24;99308.72;;;25.65;50.46
71795;BME280;59641;45.188;5.712;2023-07-13T04:16:49;99308.25;;;25.63;50.49
71795;BME280;59641;45.188;5.712;2023-07-13T04:19:15;99323.44;;;25.60;50.46
71795;BME280;59641;45.188;5.712;2023-07-13T04:21:40;99322.94;;;25.58;50.72
71795;BME280;59641;45.188;5.712;2023-07-13T04:24:05;99334.56;;;25.55;50.20
71795;BME280;59641;45.188;5.712;2023-07-13T04:26:31;99326.50;;;25.50;49.97
71795;BME280;59641;45.188;5.712;2023-07-13T04:28:57;99319.69;;;25.47;50.15
71795;BME280;59641;45.188;5.712;2023-07-13T04:31:22;99332.13;;;25.45;49.48
71795;BME280;59641;45.188;5.712;2023-07-13T04:33:48;99329.50;;;25.40;49.00
71795;BME280;59641;45.188;5.712;2023-07-13T04:36:15;99350.84;;;25.34;49.57
71795;BME280;59641;45.188;5.712;2023-07-13T04:38:41;99346.78;;;25.32;49.34
71795;BME280;59641;45.188;5.712;2023-07-13T04:41:08;99354.38;;;25.35;49.42
71795;BME280;59641;45.188;5.712;2023-07-13T04:43:34;99358.72;;;25.27;48.68
71795;BME280;59641;45.188;5.712;2023-07-13T04:46:11;99368.09;;;25.26;48.62
71795;BME280;59641;45.188;5.712;2023-07-13T04:48:37;99358.50;;;25.15;48.84
71795;BME280;59641;45.188;5.712;2023-07-13T04:51:03;99368.47;;;25.11;47.86
71795;BME280;59641;45.188;5.712;2023-07-13T04:53:29;99365.50;;;24.98;48.42
71795;BME280;59641;45.188;5.712;2023-07-13T04:55:55;99378.06;;;24.91;48.09
71795;BME280;59641;45.188;5.712;2023-07-13T04:58:21;99377.91;;;24.87;48.46
71795;BME280;59641;45.188;5.712;2023-07-13T05:00:46;99372.22;;;24.83;48.95
71795;BME280;59641;45.188;5.712;2023-07-13T05:03:12;99368.97;;;24.81;49.15
71795;BME280;59641;45.188;5.712;2023-07-13T05:05:37;99377.03;;;24.78;48.90
71795;BME280;59641;45.188;5.712;2023-07-13T05:08:03;99385.59;;;24.76;48.96
71795;BME280;59641;45.188;5.712;2023-07-13T05:10:29;99382.84;;;24.76;49.09
71795;BME280;59641;45.188;5.712;2023-07-13T05:12:54;99398.81;;;24.74;49.17
71795;BME280;59641;45.188;5.712;2023-07-13T05:15:23;99399.13;;;24.73;49.15
71795;BME280;59641;45.188;5.712;2023-07-13T05:17:49;99412.16;;;24.67;49.30
71795;BME280;59641;45.188;5.712;2023-07-13T05:20:16;99418.56;;;24.62;49.56
71795;BME280;59641;45.188;5.712;2023-07-13T05:22:42;99424.56;;;24.64;49.71
71795;BME280;59641;45.188;5.712;2023-07-13T05:25:08;99418.91;;;24.61;49.41
71795;BME280;59641;45.188;5.712;2023-07-13T05:27:34;99412.28;;;24.62;49.32
71795;BME280;59641;45.188;5.712;2023-07-13T05:30:01;99420.22;;;24.63;49.69
71795;BME280;59641;45.188;5.712;2023-07-13T05:32:27;99426.50;;;24.64;49.63
71795;BME280;59641;45.188;5.712;2023-07-13T05:34:52;99424.06;;;24.62;49.62
71795;BME280;59641;45.188;5.712;2023-07-13T05:37:17;99426.28;;;24.60;49.56
71795;BME280;59641;45.188;5.712;2023-07-13T05:39:43;99419.19;;;24.59;49.72
71795;BME280;59641;45.188;5.712;2023-07-13T05:42:08;99433.56;;;24.56;49.50
71795;BME280;59641;45.188;5.712;2023-07-13T05:44:33;99423.81;;;24.50;49.69
71795;BME280;59641;45.188;5.712;2023-07-13T05:46:59;99430.53;;;24.44;49.91
71795;BME280;59641;45.188;5.712;2023-07-13T05:49:24;99431.44;;;24.39;49.70
71795;BME280;59641;45.188;5.712;2023-07-13T05:51:49;99436.59;;;24.41;50.13
71795;BME280;59641;45.188;5.712;2023-07-13T05:54:15;99438.38;;;24.37;50.29
71795;BME280;59641;45.188;5.712;2023-07-13T05:56:40;99437.34;;;24.33;50.24
71795;BME280;59641;45.188;5.712;2023-07-13T05:59:06;99438.56;;;24.27;50.45
71795;BME280;59641;45.188;5.712;2023-07-13T06:01:31;99429.66;;;24.21;50.61
71795;BME280;59641;45.188;5.712;2023-07-13T06:03:57;99440.34;;;24.22;50.82
71795;BME280;59641;45.188;5.712;2023-07-13T06:06:22;99444.97;;;24.22;50.98
71795;BME280;59641;45.188;5.712;2023-07-13T06:08:48;99442.25;;;24.22;51.04
71795;BME280;59641;45.188;5.712;2023-07-13T06:11:17;99451.09;;;24.19;51.03
71795;BME280;59641;45.188;5.712;2023-07-13T06:13:43;99450.41;;;24.13;51.13
71795;BME280;59641;45.188;5.712;2023-07-13T06:16:08;99445.22;;;24.12;51.33
71795;BME280;59641;45.188;5.712;2023-07-13T06:18:36;99466.47;;;24.06;51.24
71795;BME280;59641;45.188;5.712;2023-07-13T06:21:14;99459.66;;;24.03;51.34
71795;BME280;59641;45.188;5.712;2023-07-13T06:23:40;99456.13;;;24.03;51.46
71795;BME280;59641;45.188;5.712;2023-07-13T06:26:05;99460.97;;;24.06;51.50
71795;BME280;59641;45.188;5.712;2023-07-13T06:28:31;99454.97;;;24.04;51.51
71795;BME280;59641;45.188;5.712;2023-07-13T06:30:58;99451.44;;;24.03;51.53
71795;BME280;59641;45.188;5.712;2023-07-13T06:33:24;99459.97;;;24.02;51.72
71795;BME280;59641;45.188;5.712;2023-07-13T06:35:50;99456.91;;;24.03;51.82
71795;BME280;59641;45.188;5.712;2023-07-13T06:38:15;99464.22;;;24.08;51.82
71795;BME280;59641;45.188;5.712;2023-07-13T06:40:40;99470.22;;;24.10;51.75
71795;BME280;59641;45.188;5.712;2023-07-13T06:43:06;99472.97;;;24.10;51.66
71795;BME280;59641;45.188;5.712;2023-07-13T06:45:36;99477.31;;;24.11;51.69
71795;BME280;59641;45.188;5.712;2023-07-13T06:48:05;99473.75;;;24.11;51.51
71795;BME280;59641;45.188;5.712;2023-07-13T06:50:30;99479.75;;;24.13;51.54
71795;BME280;59641;45.188;5.712;2023-07-13T06:52:56;99480.22;;;24.15;51.67
71795;BME280;59641;45.188;5.712;2023-07-13T06:55:21;99473.53;;;24.21;51.68
71795;BME280;59641;45.188;5.712;2023-07-13T06:57:46;99478.59;;;24.28;51.67
71795;BME280;59641;45.188;5.712;2023-07-13T07:00:12;99465.28;;;24.35;51.35
71795;BME280;59641;45.188;5.712;2023-07-13T07:02:38;99475.84;;;24.41;51.52
71795;BME280;59641;45.188;5.712;2023-07-13T07:05:04;99469.13;;;24.48;51.14
71795;BME280;59641;45.188;5.712;2023-07-13T07:07:29;99468.69;;;24.54;50.87
71795;BME280;59641;45.188;5.712;2023-07-13T07:09:54;99471.94;;;24.56;50.96
71795;BME280;59641;45.188;5.712;2023-07-13T07:12:19;99465.84;;;24.59;50.95
71795;BME280;59641;45.188;5.712;2023-07-13T07:14:45;99465.41;;;24.66;51.03
71795;BME280;59641;45.188;5.712;2023-07-13T07:17:10;99461.75;;;24.71;50.78
71795;BME280;59641;45.188;5.712;2023-07-13T07:19:35;99464.66;;;24.74;50.75
71795;BME280;59641;45.188;5.712;2023-07-13T07:22:01;99468.91;;;24.80;50.55
71795;BME280;59641;45.188;5.712;2023-07-13T07:24:26;99458.59;;;24.86;50.59
71795;BME280;59641;45.188;5.712;2023-07-13T07:26:52;99461.84;;;24.88;50.20
71795;BME280;59641;45.188;5.712;2023-07-13T07:29:17;99467.03;;;24.90;50.48
71795;BME280;59641;45.188;5.712;2023-07-13T07:31:42;99473.72;;;24.97;50.55
71795;BME280;59641;45.188;5.712;2023-07-13T07:34:08;99483.41;;;25.03;50.47
71795;BME280;59641;45.188;5.712;2023-07-13T07:36:33;99473.44;;;25.07;50.38
71795;BME280;59641;45.188;5.712;2023-07-13T07:38:59;99473.63;;;25.11;50.66
71795;BME280;59641;45.188;5.712;2023-07-13T07:41:24;99472.66;;;25.16;50.53
71795;BME280;59641;45.188;5.712;2023-07-13T07:43:49;99486.31;;;25.21;50.44
71795;BME280;59641;45.188;5.712;2023-07-13T07:46:15;99488.09;;;25.25;50.22
71795;BME280;59641;45.188;5.712;2023-07-13T07:48:40;99496.84;;;25.27;50.28
71795;BME280;59641;45.188;5.712;2023-07-13T07:51:05;99492.66;;;25.30;50.14
71795;BME280;59641;45.188;5.712;2023-07-13T07:53:31;99494.59;;;25.29;50.08
71795;BME280;59641;45.188;5.712;2023-07-13T07:55:56;99500.88;;;25.30;50.18
71795;BME280;59641;45.188;5.712;2023-07-13T07:58:21;99494.59;;;25.29;50.05
71795;BME280;59641;45.188;5.712;2023-07-13T08:00:47;99489.59;;;25.32;50.25
71795;BME280;59641;45.188;5.712;2023-07-13T08:03:12;99488.47;;;25.33;50.37
71795;BME280;59641;45.188;5.712;2023-07-13T08:05:38;99486.06;;;25.31;50.13
71795;BME280;59641;45.188;5.712;2023-07-13T08:08:03;99490.25;;;25.37;50.40
71795;BME280;59641;45.188;5.712;2023-07-13T08:10:29;99485.59;;;25.38;50.29
71795;BME280;59641;45.188;5.712;2023-07-13T08:12:54;99482.84;;;25.38;50.17
71795;BME280;59641;45.188;5.712;2023-07-13T08:15:20;99489.47;;;25.37;50.21
71795;BME280;59641;45.188;5.712;2023-07-13T08:17:47;99473.78;;;25.37;50.22
71795;BME280;59641;45.188;5.712;2023-07-13T08:20:13;99480.91;;;25.38;50.09
71795;BME280;59641;45.188;5.712;2023-07-13T08:22:38;99479.47;;;25.41;50.14
71795;BME280;59641;45.188;5.712;2023-07-13T08:25:04;99481.22;;;25.37;50.10
71795;BME280;59641;45.188;5.712;2023-07-13T08:27:31;99480.22;;;25.33;50.26
71795;BME280;59641;45.188;5.712;2023-07-13T08:29:56;99467.13;;;25.29;50.34
71795;BME280;59641;45.188;5.712;2023-07-13T08:32:22;99476.50;;;25.28;50.40
71795;BME280;59641;45.188;5.712;2023-07-13T08:34:48;99467.13;;;25.29;50.17
71795;BME280;59641;45.188;5.712;2023-07-13T08:37:15;99462.44;;;25.30;50.12
71795;BME280;59641;45.188;5.712;2023-07-13T08:39:40;99463.88;;;25.27;49.87
71795;BME280;59641;45.188;5.712;2023-07-13T08:45:23;99472.81;;;25.33;49.83
71795;BME280;59641;45.188;5.712;2023-07-13T08:47:57;99462.63;;;25.34;49.93
71795;BME280;59641;45.188;5.712;2023-07-13T08:50:31;99467.81;;;25.35;49.99
71795;BME280;59641;45.188;5.712;2023-07-13T08:52:58;99470.72;;;25.39;50.17
71795;BME280;59641;45.188;5.712;2023-07-13T08:55:28;99469.00;;;25.43;49.88
71795;BME280;59641;45.188;5.712;2023-07-13T08:58:16;99476.44;;;25.51;50.12
71795;BME280;59641;45.188;5.712;2023-07-13T09:00:54;99475.00;;;25.54;50.05
71795;BME280;59641;45.188;5.712;2023-07-13T09:03:24;99472.94;;;25.59;49.93
71795;BME280;59641;45.188;5.712;2023-07-13T09:05:55;99472.78;;;25.64;49.86
71795;BME280;59641;45.188;5.712;2023-07-13T09:14:05;99464.59;;;25.82;49.75
71795;BME280;59641;45.188;5.712;2023-07-13T09:16:34;99473.88;;;25.86;49.60
71795;BME280;59641;45.188;5.712;2023-07-13T09:19:04;99477.91;;;25.88;49.36
71795;BME280;59641;45.188;5.712;2023-07-13T09:21:37;99472.91;;;25.90;49.48
71795;BME280;59641;45.188;5.712;2023-07-13T09:26:58;99470.31;;;25.94;49.32
71795;BME280;59641;45.188;5.712;2023-07-13T09:29:34;99471.47;;;26.02;49.19
71795;BME280;59641;45.188;5.712;2023-07-13T09:32:05;99474.06;;;26.07;49.00
71795;BME280;59641;45.188;5.712;2023-07-13T09:34:32;99468.25;;;26.08;48.53
71795;BME280;59641;45.188;5.712;2023-07-13T09:36:58;99479.09;;;26.13;47.97
71795;BME280;59641;45.188;5.712;2023-07-13T09:39:33;99481.34;;;26.11;47.66
71795;BME280;59641;45.188;5.712;2023-07-13T09:42:07;99479.06;;;26.05;47.98
71795;BME280;59641;45.188;5.712;2023-07-13T09:44:44;99486.50;;;26.04;47.80
71795;BME280;59641;45.188;5.712;2023-07-13T09:47:20;99487.81;;;26.07;47.58
71795;BME280;59641;45.188;5.712;2023-07-13T09:49:54;99488.00;;;26.10;47.43
71795;BME280;59641;45.188;5.712;2023-07-13T09:52:20;99484.28;;;26.15;47.80
71795;BME280;59641;45.188;5.712;2023-07-13T09:54:49;99488.00;;;26.19;47.59
71795;BME280;59641;45.188;5.712;2023-07-13T09:57:19;99497.22;;;26.23;47.35
71795;BME280;59641;45.188;5.712;2023-07-13T09:59:49;99491.06;;;26.26;47.39
71795;BME280;59641;45.188;5.712;2023-07-13T10:02:35;99479.28;;;26.34;47.23
71795;BME280;59641;45.188;5.712;2023-07-13T10:05:10;99475.09;;;26.37;47.03
71795;BME280;59641;45.188;5.712;2023-07-13T10:07:43;99478.16;;;26.44;46.71
71795;BME280;59641;45.188;5.712;2023-07-13T10:10:20;99480.44;;;26.51;46.22
71795;BME280;59641;45.188;5.712;2023-07-13T10:12:46;99483.66;;;26.53;46.02
71795;BME280;59641;45.188;5.712;2023-07-13T10:15:30;99486.75;;;26.60;46.35
71795;BME280;59641;45.188;5.712;2023-07-13T10:17:55;99493.59;;;26.63;46.36
71795;BME280;59641;45.188;5.712;2023-07-13T10:20:24;99492.28;;;26.69;45.71
71795;BME280;59641;45.188;5.712;2023-07-13T10:23:00;99492.59;;;26.76;46.07
71795;BME280;59641;45.188;5.712;2023-07-13T10:25:31;99495.19;;;26.81;45.86
71795;BME280;59641;45.188;5.712;2023-07-13T10:28:05;99501.34;;;26.87;45.47
71795;BME280;59641;45.188;5.712;2023-07-13T10:30:35;99509.75;;;26.90;44.77
71795;BME280;59641;45.188;5.712;2023-07-13T10:33:10;99495.81;;;26.95;45.17
71795;BME280;59641;45.188;5.712;2023-07-13T10:35:39;99499.19;;;27.01;44.34
71795;BME280;59641;45.188;5.712;2023-07-13T10:38:21;99491.59;;;27.07;44.32
71795;BME280;59641;45.188;5.712;2023-07-13T10:40:57;99489.16;;;27.05;43.88
71795;BME280;59641;45.188;5.712;2023-07-13T10:43:40;99483.81;;;27.09;43.74
71795;BME280;59641;45.188;5.712;2023-07-13T10:46:11;99491.75;;;27.10;43.41
71795;BME280;59641;45.188;5.712;2023-07-13T10:48:39;99495.31;;;27.11;43.30
71795;BME280;59641;45.188;5.712;2023-07-13T10:51:07;99483.50;;;27.19;43.19
71795;BME280;59641;45.188;5.712;2023-07-13T10:53:35;99493.84;;;27.22;42.99
71795;BME280;59641;45.188;5.712;2023-07-13T10:56:27;99481.84;;;27.27;43.48
71795;BME280;59641;45.188;5.712;2023-07-13T10:59:24;99467.59;;;27.33;42.70
71795;BME280;59641;45.188;5.712;2023-07-13T11:02:00;99464.81;;;27.33;42.10
71795;BME280;59641;45.188;5.712;2023-07-13T11:04:42;99460.91;;;27.34;42.12
71795;BME280;59641;45.188;5.712;2023-07-13T11:07:21;99454.78;;;27.37;42.02
71795;BME280;59641;45.188;5.712;2023-07-13T11:09:50;99453.78;;;27.42;42.37
71795;BME280;59641;45.188;5.712;2023-07-13T11:19:54;99450.84;;;27.77;41.84
71795;BME280;59641;45.188;5.712;2023-07-13T11:22:25;99460.88;;;27.81;41.07
71795;BME280;59641;45.188;5.712;2023-07-13T11:31:21;99452.50;;;28.08;41.46
71795;BME280;59641;45.188;5.712;2023-07-13T11:36:13;99445.22;;;28.45;41.50
71795;BME280;59641;45.188;5.712;2023-07-13T11:39:16;99431.50;;;28.57;40.62
71795;BME280;59641;45.188;5.712;2023-07-13T11:41:37;99423.75;;;28.72;41.09
71795;BME280;59641;45.188;5.712;2023-07-13T11:44:14;99425.75;;;28.83;40.15
71795;BME280;59641;45.188;5.712;2023-07-13T11:46:45;99411.38;;;28.90;39.64
71795;BME280;59641;45.188;5.712;2023-07-13T11:49:15;99418.31;;;28.96;40.37
71795;BME280;59641;45.188;5.712;2023-07-13T11:51:41;99422.41;;;29.11;39.24
71795;BME280;59641;45.188;5.712;2023-07-13T11:54:24;99422.66;;;29.30;40.50
71795;BME280;59641;45.188;5.712;2023-07-13T11:56:51;99409.66;;;29.43;39.97
71795;BME280;59641;45.188;5.712;2023-07-13T11:59:17;99409.66;;;29.56;38.83
71795;BME280;59641;45.188;5.712;2023-07-13T12:01:46;99414.28;;;29.64;38.61
71795;BME280;59641;45.188;5.712;2023-07-13T12:04:32;99413.91;;;29.78;38.62
71795;BME280;59641;45.188;5.712;2023-07-13T12:07:05;99415.09;;;29.77;36.62
71795;BME280;59641;45.188;5.712;2023-07-13T12:09:31;99413.50;;;29.76;35.33
71795;BME280;59641;45.188;5.712;2023-07-13T12:11:58;99421.09;;;29.79;37.73
71795;BME280;59641;45.188;5.712;2023-07-13T12:14:26;99407.81;;;29.84;37.60
71795;BME280;59641;45.188;5.712;2023-07-13T12:16:52;99387.53;;;29.92;38.31
71795;BME280;59641;45.188;5.712;2023-07-13T12:19:25;99386.25;;;30.02;38.48
71795;BME280;59641;45.188;5.712;2023-07-13T12:21:53;99380.66;;;30.14;36.26
71795;BME280;59641;45.188;5.712;2023-07-13T12:24:21;99379.97;;;30.18;34.98
71795;BME280;59641;45.188;5.712;2023-07-13T12:26:58;99382.97;;;30.12;36.50
71795;BME280;59641;45.188;5.712;2023-07-13T12:29:25;99376.72;;;30.15;35.47
71795;BME280;59641;45.188;5.712;2023-07-13T12:31:50;99371.78;;;30.21;36.21
71795;BME280;59641;45.188;5.712;2023-07-13T12:34:20;99373.94;;;30.28;37.37
71795;BME280;59641;45.188;5.712;2023-07-13T12:39:20;99385.59;;;30.33;36.77
71795;BME280;59641;45.188;5.712;2023-07-13T12:41:48;99382.91;;;30.37;37.22
71795;BME280;59641;45.188;5.712;2023-07-13T12:44:16;99387.84;;;30.44;35.22
71795;BME280;59641;45.188;5.712;2023-07-13T12:47:19;99385.28;;;30.51;36.21
71795;BME280;59641;45.188;5.712;2023-07-13T12:49:53;99374.09;;;30.47;36.12
71795;BME280;59641;45.188;5.712;2023-07-13T12:52:37;99374.72;;;30.41;35.79
71795;BME280;59641;45.188;5.712;2023-07-13T12:55:10;99370.84;;;30.29;35.17
71795;BME280;59641;45.188;5.712;2023-07-13T12:57:57;99376.59;;;30.24;35.70
71795;BME280;59641;45.188;5.712;2023-07-13T13:00:36;99369.34;;;30.20;34.70
71795;BME280;59641;45.188;5.712;2023-07-13T13:03:24;99376.41;;;30.17;35.28
71795;BME280;59641;45.188;5.712;2023-07-13T13:05:57;99374.44;;;30.18;36.00
71795;BME280;59641;45.188;5.712;2023-07-13T13:08:23;99371.44;;;30.10;33.10
71795;BME280;59641;45.188;5.712;2023-07-13T13:10:48;99371.69;;;30.05;34.05
71795;BME280;59641;45.188;5.712;2023-07-13T13:13:14;99371.16;;;30.00;34.60
71795;BME280;59641;45.188;5.712;2023-07-13T13:15:39;99376.91;;;29.94;33.26
71795;BME280;59641;45.188;5.712;2023-07-13T13:18:15;99371.72;;;29.93;34.08
71795;BME280;59641;45.188;5.712;2023-07-13T13:20:41;99376.25;;;29.85;34.30
71795;BME280;59641;45.188;5.712;2023-07-13T13:23:12;99375.00;;;29.83;33.83
71795;BME280;59641;45.188;5.712;2023-07-13T13:25:39;99376.13;;;29.82;33.68
71795;BME280;59641;45.188;5.712;2023-07-13T13:28:04;99374.88;;;29.79;34.34
71795;BME280;59641;45.188;5.712;2023-07-13T13:30:30;99371.19;;;29.75;34.09
71795;BME280;59641;45.188;5.712;2023-07-13T13:32:56;99369.44;;;29.70;34.06
71795;BME280;59641;45.188;5.712;2023-07-13T13:35:21;99364.63;;;29.67;33.48
71795;BME280;59641;45.188;5.712;2023-07-13T13:37:47;99370.81;;;29.64;33.86
71795;BME280;59641;45.188;5.712;2023-07-13T13:40:20;99371.31;;;29.66;33.48